FDX5062 KMEM-KSLC
Flight info
| Callsign | FDX5062 |
|---|---|
| Flight time | N/A |
| Altitude | 32000 |
| Route | DUCKZ5 HELAR ICT OATHE RACER PITTT2 |
| Aircraft | B738/M-SDE2E3FGHIRWXY/LB1 |
Departure
| Time | 2026-05-06 13:33 |
|---|---|
| Airport | Memphis International Airport (KMEM) |
Arrival
| Time | N/A |
|---|---|
| Airport | Salt Lake City International Airport (KSLC) |
| Time | Latitude | Longitude | Altitude | Speed | Heading |
|---|---|---|---|---|---|
| 2026-05-06 13:13 | 35.06382 | -89.97603 | 326 ft | 0 kts | 270° |
| 2026-05-06 13:19 | 35.06383 | -89.97583 | 330 ft | 3 kts | 268° |
| 2026-05-06 13:19 | 35.06389 | -89.97556 | 328 ft | 4 kts | 216° |
| 2026-05-06 13:19 | 35.06413 | -89.97545 | 326 ft | 3 kts | 181° |
| 2026-05-06 13:19 | 35.06420 | -89.97545 | 325 ft | 0 kts | 180° |
| 2026-05-06 13:21 | 35.06418 | -89.97545 | 326 ft | 2 kts | 179° |
| 2026-05-06 13:21 | 35.06383 | -89.97544 | 327 ft | 7 kts | 177° |
| 2026-05-06 13:22 | 35.06335 | -89.97540 | 327 ft | 7 kts | 180° |
| 2026-05-06 13:22 | 35.06280 | -89.97540 | 328 ft | 9 kts | 179° |
| 2026-05-06 13:22 | 35.06215 | -89.97537 | 330 ft | 10 kts | 177° |
| 2026-05-06 13:22 | 35.06127 | -89.97535 | 327 ft | 15 kts | 178° |
| 2026-05-06 13:23 | 35.06020 | -89.97536 | 327 ft | 15 kts | 186° |
| 2026-05-06 13:23 | 35.05972 | -89.97627 | 328 ft | 14 kts | 279° |
| 2026-05-06 13:23 | 35.05992 | -89.97750 | 328 ft | 16 kts | 281° |
| 2026-05-06 13:23 | 35.06007 | -89.97894 | 330 ft | 18 kts | 272° |
| 2026-05-06 13:24 | 35.06011 | -89.98049 | 330 ft | 19 kts | 271° |
| 2026-05-06 13:24 | 35.06014 | -89.98206 | 328 ft | 18 kts | 272° |
| 2026-05-06 13:24 | 35.06019 | -89.98358 | 328 ft | 18 kts | 272° |
| 2026-05-06 13:24 | 35.06011 | -89.98486 | 329 ft | 12 kts | 230° |
| 2026-05-06 13:25 | 35.05935 | -89.98505 | 326 ft | 11 kts | 180° |
| 2026-05-06 13:25 | 35.05836 | -89.98504 | 325 ft | 17 kts | 179° |
| 2026-05-06 13:25 | 35.05712 | -89.98502 | 328 ft | 18 kts | 181° |
| 2026-05-06 13:25 | 35.05582 | -89.98504 | 326 ft | 19 kts | 180° |
| 2026-05-06 13:26 | 35.05457 | -89.98507 | 325 ft | 18 kts | 181° |
| 2026-05-06 13:26 | 35.05334 | -89.98508 | 329 ft | 17 kts | 180° |
| 2026-05-06 13:26 | 35.05197 | -89.98508 | 327 ft | 20 kts | 180° |
| 2026-05-06 13:26 | 35.05059 | -89.98512 | 328 ft | 20 kts | 182° |
| 2026-05-06 13:27 | 35.04937 | -89.98558 | 329 ft | 19 kts | 230° |
| 2026-05-06 13:27 | 35.04818 | -89.98604 | 329 ft | 19 kts | 179° |
| 2026-05-06 13:27 | 35.04688 | -89.98601 | 330 ft | 19 kts | 178° |
| 2026-05-06 13:27 | 35.04558 | -89.98598 | 329 ft | 19 kts | 179° |
| 2026-05-06 13:28 | 35.04420 | -89.98595 | 329 ft | 20 kts | 179° |
| 2026-05-06 13:28 | 35.04282 | -89.98593 | 325 ft | 20 kts | 179° |
| 2026-05-06 13:28 | 35.04148 | -89.98588 | 327 ft | 19 kts | 177° |
| 2026-05-06 13:28 | 35.04018 | -89.98585 | 327 ft | 18 kts | 179° |
| 2026-05-06 13:29 | 35.03893 | -89.98582 | 326 ft | 18 kts | 179° |
| 2026-05-06 13:29 | 35.03769 | -89.98580 | 328 ft | 19 kts | 179° |
| 2026-05-06 13:29 | 35.03633 | -89.98575 | 330 ft | 20 kts | 178° |
| 2026-05-06 13:29 | 35.03499 | -89.98574 | 327 ft | 19 kts | 180° |
| 2026-05-06 13:30 | 35.03367 | -89.98572 | 328 ft | 19 kts | 178° |
| 2026-05-06 13:30 | 35.03240 | -89.98569 | 327 ft | 18 kts | 179° |
| 2026-05-06 13:30 | 35.03116 | -89.98567 | 326 ft | 17 kts | 179° |
| 2026-05-06 13:30 | 35.02998 | -89.98564 | 329 ft | 17 kts | 178° |
| 2026-05-06 13:31 | 35.02883 | -89.98560 | 329 ft | 16 kts | 179° |
| 2026-05-06 13:31 | 35.02773 | -89.98557 | 328 ft | 16 kts | 178° |
| 2026-05-06 13:31 | 35.02667 | -89.98554 | 326 ft | 15 kts | 179° |
| 2026-05-06 13:31 | 35.02566 | -89.98553 | 328 ft | 14 kts | 180° |
| 2026-05-06 13:32 | 35.02468 | -89.98549 | 325 ft | 14 kts | 177° |
| 2026-05-06 13:32 | 35.02410 | -89.98581 | 325 ft | 9 kts | 246° |
| 2026-05-06 13:32 | 35.02406 | -89.98668 | 329 ft | 11 kts | 289° |
| 2026-05-06 13:32 | 35.02473 | -89.98695 | 326 ft | 11 kts | 358° |
| 2026-05-06 13:33 | 35.02590 | -89.98696 | 326 ft | 43 kts | 359° |
| 2026-05-06 13:33 | 35.03167 | -89.98711 | 329 ft | 121 kts | 359° |
| 2026-05-06 13:33 | 35.04230 | -89.98727 | 405 ft | 178 kts | 359° |
| 2026-05-06 13:33 | 35.05526 | -89.98750 | 1153 ft | 192 kts | 359° |
| 2026-05-06 13:34 | 35.06866 | -89.98806 | 2120 ft | 191 kts | 356° |
| 2026-05-06 13:34 | 35.08208 | -89.99295 | 2515 ft | 216 kts | 326° |
| 2026-05-06 13:34 | 35.09495 | -90.00393 | 2843 ft | 234 kts | 327° |
| 2026-05-06 13:34 | 35.10762 | -90.01642 | 3386 ft | 242 kts | 306° |
| 2026-05-06 13:35 | 35.11252 | -90.03564 | 4102 ft | 241 kts | 266° |
| 2026-05-06 13:35 | 35.10803 | -90.05520 | 4859 ft | 240 kts | 253° |
| 2026-05-06 13:35 | 35.10423 | -90.07485 | 5621 ft | 236 kts | 261° |
| 2026-05-06 13:35 | 35.10153 | -90.09441 | 6403 ft | 233 kts | 259° |
| 2026-05-06 13:36 | 35.09864 | -90.11382 | 7129 ft | 232 kts | 259° |
| 2026-05-06 13:36 | 35.09584 | -90.13334 | 7758 ft | 235 kts | 259° |
| 2026-05-06 13:36 | 35.09320 | -90.15282 | 8391 ft | 236 kts | 260° |
| 2026-05-06 13:36 | 35.09060 | -90.17274 | 9066 ft | 235 kts | 260° |
| 2026-05-06 13:37 | 35.08814 | -90.19231 | 9694 ft | 236 kts | 261° |
| 2026-05-06 13:37 | 35.08572 | -90.21205 | 10379 ft | 234 kts | 261° |
| 2026-05-06 13:37 | 35.08329 | -90.23222 | 10786 ft | 250 kts | 261° |
| 2026-05-06 13:37 | 35.08069 | -90.25421 | 10984 ft | 273 kts | 261° |
| 2026-05-06 13:38 | 35.07792 | -90.27802 | 11178 ft | 294 kts | 261° |
| 2026-05-06 13:38 | 35.07495 | -90.30368 | 11351 ft | 315 kts | 261° |
| 2026-05-06 13:38 | 35.07181 | -90.33093 | 11534 ft | 333 kts | 261° |
| 2026-05-06 13:38 | 35.06858 | -90.35924 | 11998 ft | 340 kts | 261° |
| 2026-05-06 13:39 | 35.06536 | -90.38740 | 12775 ft | 338 kts | 261° |
| 2026-05-06 13:39 | 35.06213 | -90.41575 | 13483 ft | 338 kts | 261° |
| 2026-05-06 13:39 | 35.05888 | -90.44422 | 14104 ft | 340 kts | 261° |
| 2026-05-06 13:39 | 35.05559 | -90.47296 | 14643 ft | 344 kts | 261° |
| 2026-05-06 13:40 | 35.05226 | -90.50196 | 15195 ft | 347 kts | 261° |
| 2026-05-06 13:40 | 35.04890 | -90.53115 | 15798 ft | 348 kts | 261° |
| 2026-05-06 13:40 | 35.04553 | -90.56037 | 16387 ft | 349 kts | 261° |
| 2026-05-06 13:40 | 35.04214 | -90.58973 | 16934 ft | 350 kts | 261° |
| 2026-05-06 13:41 | 35.03871 | -90.61922 | 17436 ft | 353 kts | 261° |
| 2026-05-06 13:41 | 35.03532 | -90.64855 | 17951 ft | 354 kts | 261° |
| 2026-05-06 13:41 | 35.03186 | -90.67834 | 18462 ft | 356 kts | 261° |
| 2026-05-06 13:41 | 35.02836 | -90.70832 | 18943 ft | 358 kts | 261° |
| 2026-05-06 13:42 | 35.02488 | -90.73834 | 19404 ft | 360 kts | 261° |
| 2026-05-06 13:42 | 35.02308 | -90.76897 | 19819 ft | 364 kts | 268° |
| 2026-05-06 13:42 | 35.02394 | -90.79987 | 20294 ft | 366 kts | 269° |
| 2026-05-06 13:42 | 35.02481 | -90.83097 | 20712 ft | 368 kts | 271° |
| 2026-05-06 13:43 | 35.02931 | -90.86198 | 21086 ft | 376 kts | 281° |
| 2026-05-06 13:43 | 35.03737 | -90.89205 | 21506 ft | 380 kts | 285° |
| 2026-05-06 13:43 | 35.04868 | -90.92152 | 21873 ft | 388 kts | 292° |
| 2026-05-06 13:43 | 35.06191 | -90.95030 | 22246 ft | 389 kts | 292° |
| 2026-05-06 13:44 | 35.07503 | -90.97929 | 22587 ft | 391 kts | 292° |
| 2026-05-06 13:44 | 35.08811 | -91.00843 | 22933 ft | 392 kts | 292° |
| 2026-05-06 13:44 | 35.10122 | -91.03774 | 23261 ft | 394 kts | 292° |
| 2026-05-06 13:44 | 35.11432 | -91.06717 | 23601 ft | 395 kts | 292° |
| 2026-05-06 13:45 | 35.12745 | -91.09668 | 23915 ft | 397 kts | 291° |
| 2026-05-06 13:45 | 35.15373 | -91.15587 | 24454 ft | 400 kts | 291° |
| 2026-05-06 13:45 | 35.16701 | -91.18580 | 24759 ft | 401 kts | 291° |
| 2026-05-06 13:46 | 35.18035 | -91.21586 | 25074 ft | 401 kts | 291° |
| 2026-05-06 13:46 | 35.19364 | -91.24585 | 25362 ft | 402 kts | 291° |
| 2026-05-06 13:46 | 35.20696 | -91.27594 | 25653 ft | 403 kts | 291° |
| 2026-05-06 13:46 | 35.22032 | -91.30614 | 25894 ft | 404 kts | 291° |
| 2026-05-06 13:47 | 35.23371 | -91.33648 | 26110 ft | 406 kts | 291° |
| 2026-05-06 13:47 | 35.24714 | -91.36691 | 26370 ft | 407 kts | 291° |
| 2026-05-06 13:47 | 35.26041 | -91.39698 | 26649 ft | 407 kts | 291° |
| 2026-05-06 13:47 | 35.27385 | -91.42745 | 26946 ft | 406 kts | 291° |
| 2026-05-06 13:48 | 35.28724 | -91.45783 | 27317 ft | 404 kts | 291° |
| 2026-05-06 13:48 | 35.30051 | -91.48799 | 27704 ft | 402 kts | 291° |
| 2026-05-06 13:48 | 35.31375 | -91.51808 | 28066 ft | 400 kts | 290° |
| 2026-05-06 13:48 | 35.32688 | -91.54796 | 28448 ft | 398 kts | 290° |
| 2026-05-06 13:49 | 35.33993 | -91.57767 | 28857 ft | 395 kts | 290° |
| 2026-05-06 13:49 | 35.35289 | -91.60724 | 29185 ft | 394 kts | 290° |
| 2026-05-06 13:49 | 35.36584 | -91.63683 | 29523 ft | 393 kts | 290° |
| 2026-05-06 13:49 | 35.37851 | -91.66583 | 29860 ft | 391 kts | 290° |
| 2026-05-06 13:50 | 35.39133 | -91.69517 | 30245 ft | 389 kts | 290° |
| 2026-05-06 13:50 | 35.40405 | -91.72425 | 30695 ft | 385 kts | 289° |
| 2026-05-06 13:50 | 35.41665 | -91.75304 | 31133 ft | 382 kts | 289° |
| 2026-05-06 13:50 | 35.42914 | -91.78165 | 31519 ft | 379 kts | 289° |
| 2026-05-06 13:51 | 35.44156 | -91.81019 | 31811 ft | 379 kts | 289° |
| 2026-05-06 13:51 | 35.45395 | -91.83869 | 32047 ft | 377 kts | 289° |
| 2026-05-06 13:51 | 35.47840 | -91.89495 | 32096 ft | 377 kts | 289° |
| 2026-05-06 13:52 | 35.50310 | -91.95196 | 32101 ft | 379 kts | 289° |
| 2026-05-06 13:52 | 35.52791 | -92.00930 | 32101 ft | 381 kts | 289° |
| 2026-05-06 13:53 | 35.55276 | -92.06676 | 32096 ft | 381 kts | 289° |
| 2026-05-06 13:53 | 35.57759 | -92.12424 | 32096 ft | 381 kts | 289° |
| 2026-05-06 13:54 | 35.60220 | -92.18128 | 32100 ft | 380 kts | 288° |
| 2026-05-06 13:54 | 35.62686 | -92.23864 | 32106 ft | 378 kts | 288° |
| 2026-05-06 13:55 | 35.65142 | -92.29579 | 32123 ft | 378 kts | 288° |
| 2026-05-06 13:55 | 35.67603 | -92.35297 | 32126 ft | 378 kts | 288° |
| 2026-05-06 13:56 | 35.70035 | -92.40975 | 32115 ft | 378 kts | 288° |
| 2026-05-06 13:56 | 35.72469 | -92.46687 | 32119 ft | 377 kts | 288° |
| 2026-05-06 13:57 | 35.74904 | -92.52398 | 32117 ft | 376 kts | 288° |
| 2026-05-06 13:57 | 35.77327 | -92.58102 | 32128 ft | 376 kts | 288° |
| 2026-05-06 13:58 | 35.79740 | -92.63772 | 32135 ft | 375 kts | 288° |
| 2026-05-06 13:58 | 35.82165 | -92.69479 | 32121 ft | 376 kts | 288° |
| 2026-05-06 13:59 | 35.84589 | -92.75193 | 32131 ft | 377 kts | 288° |
| 2026-05-06 13:59 | 35.87015 | -92.80931 | 32110 ft | 378 kts | 288° |
| 2026-05-06 14:00 | 35.89425 | -92.86638 | 32126 ft | 378 kts | 288° |
| 2026-05-06 14:00 | 35.91849 | -92.92395 | 32109 ft | 378 kts | 288° |
| 2026-05-06 14:01 | 35.94351 | -92.98136 | 32121 ft | 378 kts | 287° |
| 2026-05-06 14:01 | 35.96727 | -93.03913 | 32128 ft | 378 kts | 287° |
| 2026-05-06 14:02 | 35.99122 | -93.09688 | 32125 ft | 378 kts | 287° |
| 2026-05-06 14:02 | 36.01509 | -93.15406 | 32134 ft | 376 kts | 287° |
| 2026-05-06 14:03 | 36.03887 | -93.21128 | 32114 ft | 373 kts | 287° |
| 2026-05-06 14:03 | 36.06252 | -93.26799 | 32114 ft | 371 kts | 287° |
| 2026-05-06 14:04 | 36.08211 | -93.31498 | 32138 ft | 370 kts | 287° |
| 2026-05-06 14:04 | 36.10954 | -93.38084 | 32122 ft | 371 kts | 287° |
| 2026-05-06 14:05 | 36.13323 | -93.43783 | 32124 ft | 375 kts | 287° |
| 2026-05-06 14:05 | 36.15687 | -93.49530 | 32125 ft | 376 kts | 287° |
| 2026-05-06 14:06 | 36.17680 | -93.54325 | 32124 ft | 377 kts | 287° |
| 2026-05-06 14:06 | 36.20459 | -93.61048 | 32128 ft | 377 kts | 287° |
| 2026-05-06 14:07 | 36.22832 | -93.66827 | 32128 ft | 376 kts | 287° |
| 2026-05-06 14:07 | 36.24804 | -93.71622 | 32133 ft | 375 kts | 287° |
| 2026-05-06 14:08 | 36.27175 | -93.77379 | 32129 ft | 375 kts | 286° |
| 2026-05-06 14:08 | 36.29533 | -93.83129 | 32132 ft | 374 kts | 286° |
| 2026-05-06 14:09 | 36.31887 | -93.88880 | 32123 ft | 374 kts | 286° |
| 2026-05-06 14:09 | 36.34214 | -93.94590 | 32135 ft | 373 kts | 286° |
| 2026-05-06 14:10 | 36.36559 | -94.00330 | 32134 ft | 373 kts | 286° |
| 2026-05-06 14:10 | 36.38897 | -94.06070 | 32132 ft | 373 kts | 286° |
| 2026-05-06 14:11 | 36.41234 | -94.11811 | 32128 ft | 373 kts | 286° |
| 2026-05-06 14:11 | 36.43548 | -94.17519 | 32140 ft | 372 kts | 286° |
| 2026-05-06 14:12 | 36.45875 | -94.23265 | 32141 ft | 372 kts | 286° |
| 2026-05-06 14:12 | 36.48199 | -94.29011 | 32142 ft | 372 kts | 286° |
| 2026-05-06 14:13 | 36.50513 | -94.34755 | 32139 ft | 372 kts | 286° |
| 2026-05-06 14:13 | 36.52826 | -94.40497 | 32143 ft | 371 kts | 286° |
| 2026-05-06 14:14 | 36.55122 | -94.46210 | 32142 ft | 371 kts | 286° |
| 2026-05-06 14:14 | 36.57426 | -94.51952 | 32137 ft | 371 kts | 285° |
| 2026-05-06 14:15 | 36.59726 | -94.57694 | 32140 ft | 370 kts | 285° |
| 2026-05-06 14:15 | 36.62020 | -94.63428 | 32144 ft | 370 kts | 285° |
| 2026-05-06 14:16 | 36.64292 | -94.69117 | 32138 ft | 369 kts | 285° |
| 2026-05-06 14:16 | 36.66573 | -94.74844 | 32141 ft | 369 kts | 285° |
| 2026-05-06 14:17 | 36.68852 | -94.80576 | 32139 ft | 369 kts | 285° |
| 2026-05-06 14:17 | 36.71123 | -94.86293 | 32139 ft | 368 kts | 285° |
| 2026-05-06 14:18 | 36.73390 | -94.92013 | 32142 ft | 368 kts | 285° |
| 2026-05-06 14:18 | 36.75640 | -94.97697 | 32140 ft | 367 kts | 285° |
| 2026-05-06 14:19 | 36.77896 | -95.03410 | 32139 ft | 367 kts | 285° |
| 2026-05-06 14:19 | 36.80151 | -95.09130 | 32139 ft | 367 kts | 285° |
| 2026-05-06 14:20 | 36.82399 | -95.14845 | 32146 ft | 367 kts | 285° |
| 2026-05-06 14:20 | 36.84630 | -95.20527 | 32136 ft | 367 kts | 285° |
| 2026-05-06 14:21 | 36.86873 | -95.26246 | 32137 ft | 367 kts | 285° |
| 2026-05-06 14:21 | 36.89110 | -95.31962 | 32151 ft | 366 kts | 284° |
| 2026-05-06 14:22 | 36.91346 | -95.37684 | 32142 ft | 367 kts | 284° |
| 2026-05-06 14:22 | 36.93565 | -95.43376 | 32156 ft | 367 kts | 284° |
| 2026-05-06 14:23 | 36.95796 | -95.49109 | 32160 ft | 367 kts | 284° |
| 2026-05-06 14:23 | 36.98022 | -95.54839 | 32168 ft | 367 kts | 284° |
| 2026-05-06 14:24 | 37.00248 | -95.60581 | 32169 ft | 367 kts | 284° |
| 2026-05-06 14:24 | 37.02471 | -95.66322 | 32165 ft | 367 kts | 284° |
| 2026-05-06 14:25 | 37.04674 | -95.72021 | 32158 ft | 366 kts | 284° |
| 2026-05-06 14:25 | 37.06883 | -95.77746 | 32175 ft | 365 kts | 284° |
| 2026-05-06 14:26 | 37.09086 | -95.83470 | 32177 ft | 364 kts | 284° |
| 2026-05-06 14:26 | 37.11281 | -95.89184 | 32179 ft | 364 kts | 284° |
| 2026-05-06 14:27 | 37.13477 | -95.94900 | 32175 ft | 365 kts | 284° |
| 2026-05-06 14:27 | 37.15654 | -96.00596 | 32165 ft | 364 kts | 284° |
| 2026-05-06 14:28 | 37.17840 | -96.06324 | 32166 ft | 364 kts | 284° |
| 2026-05-06 14:28 | 37.20027 | -96.12056 | 32176 ft | 364 kts | 284° |
| 2026-05-06 14:29 | 37.22196 | -96.17749 | 32170 ft | 364 kts | 284° |
| 2026-05-06 14:29 | 37.24375 | -96.23478 | 32168 ft | 363 kts | 284° |
| 2026-05-06 14:30 | 37.26547 | -96.29199 | 32175 ft | 363 kts | 284° |
| 2026-05-06 14:30 | 37.28712 | -96.34919 | 32171 ft | 362 kts | 284° |
| 2026-05-06 14:31 | 37.30872 | -96.40632 | 32183 ft | 362 kts | 284° |
| 2026-05-06 14:31 | 37.33017 | -96.46317 | 32177 ft | 362 kts | 284° |
| 2026-05-06 14:32 | 37.35177 | -96.52043 | 32170 ft | 363 kts | 284° |
| 2026-05-06 14:32 | 37.37326 | -96.57767 | 32184 ft | 362 kts | 284° |
| 2026-05-06 14:33 | 37.39477 | -96.63502 | 32189 ft | 363 kts | 284° |
| 2026-05-06 14:33 | 37.41607 | -96.69195 | 32187 ft | 362 kts | 283° |
| 2026-05-06 14:34 | 37.43756 | -96.74940 | 32186 ft | 363 kts | 283° |
| 2026-05-06 14:34 | 37.45904 | -96.80698 | 32185 ft | 364 kts | 283° |
| 2026-05-06 14:35 | 37.48053 | -96.86469 | 32184 ft | 364 kts | 283° |
| 2026-05-06 14:35 | 37.50186 | -96.92205 | 32188 ft | 364 kts | 283° |
| 2026-05-06 14:36 | 37.52329 | -96.97982 | 32189 ft | 364 kts | 283° |
| 2026-05-06 14:36 | 37.54471 | -97.03770 | 32190 ft | 364 kts | 283° |
| 2026-05-06 14:37 | 37.56612 | -97.09561 | 32193 ft | 365 kts | 283° |
| 2026-05-06 14:37 | 37.58752 | -97.15361 | 32199 ft | 364 kts | 283° |
| 2026-05-06 14:38 | 37.60871 | -97.21114 | 32188 ft | 364 kts | 283° |
| 2026-05-06 14:38 | 37.62999 | -97.26905 | 32189 ft | 364 kts | 283° |
| 2026-05-06 14:39 | 37.65124 | -97.32699 | 32181 ft | 363 kts | 283° |
| 2026-05-06 14:39 | 37.67242 | -97.38482 | 32189 ft | 363 kts | 283° |
| 2026-05-06 14:40 | 37.69338 | -97.44221 | 32194 ft | 362 kts | 283° |
| 2026-05-06 14:40 | 37.71447 | -97.50001 | 32198 ft | 362 kts | 283° |
| 2026-05-06 14:41 | 37.73552 | -97.55784 | 32195 ft | 362 kts | 282° |
| 2026-05-06 14:41 | 37.75439 | -97.61622 | 32205 ft | 356 kts | 278° |
| 2026-05-06 14:42 | 37.77093 | -97.67521 | 32214 ft | 357 kts | 278° |
| 2026-05-06 14:42 | 37.78752 | -97.73387 | 32206 ft | 357 kts | 278° |
| 2026-05-06 14:43 | 37.80426 | -97.79311 | 32199 ft | 358 kts | 278° |
| 2026-05-06 14:43 | 37.82099 | -97.85241 | 32216 ft | 358 kts | 278° |
| 2026-05-06 14:44 | 37.83773 | -97.91190 | 32212 ft | 359 kts | 278° |
| 2026-05-06 14:45 | 37.86267 | -98.00073 | 32220 ft | 359 kts | 278° |
| 2026-05-06 14:45 | 37.87932 | -98.06021 | 32219 ft | 358 kts | 278° |
| 2026-05-06 14:46 | 37.89590 | -98.11964 | 32216 ft | 358 kts | 278° |
| 2026-05-06 14:46 | 37.91247 | -98.17914 | 32217 ft | 358 kts | 278° |
| 2026-05-06 14:47 | 37.92889 | -98.23825 | 32214 ft | 358 kts | 278° |
| 2026-05-06 14:47 | 37.94537 | -98.29765 | 32216 ft | 358 kts | 278° |
| 2026-05-06 14:48 | 37.96181 | -98.35703 | 32215 ft | 357 kts | 278° |
| 2026-05-06 14:48 | 37.97824 | -98.41642 | 32221 ft | 357 kts | 278° |
| 2026-05-06 14:49 | 37.99445 | -98.47537 | 32223 ft | 357 kts | 278° |
| 2026-05-06 14:49 | 38.01076 | -98.53480 | 32221 ft | 357 kts | 278° |
| 2026-05-06 14:50 | 38.02706 | -98.59432 | 32224 ft | 358 kts | 278° |
| 2026-05-06 14:50 | 38.04337 | -98.65397 | 32224 ft | 358 kts | 278° |
| 2026-05-06 14:51 | 38.05960 | -98.71342 | 32222 ft | 359 kts | 278° |
| 2026-05-06 14:51 | 38.07593 | -98.77339 | 32228 ft | 360 kts | 278° |
| 2026-05-06 14:52 | 38.09229 | -98.83366 | 32224 ft | 362 kts | 278° |
| 2026-05-06 14:52 | 38.10867 | -98.89411 | 32224 ft | 362 kts | 278° |
| 2026-05-06 14:53 | 38.12505 | -98.95470 | 32227 ft | 363 kts | 278° |
| 2026-05-06 14:53 | 38.14136 | -99.01510 | 32224 ft | 364 kts | 278° |
| 2026-05-06 14:54 | 38.15771 | -99.07586 | 32220 ft | 364 kts | 278° |
| 2026-05-06 14:54 | 38.17403 | -99.13669 | 32223 ft | 364 kts | 278° |
| 2026-05-06 14:55 | 38.19034 | -99.19755 | 32223 ft | 363 kts | 278° |
| 2026-05-06 14:55 | 38.20648 | -99.25793 | 32229 ft | 363 kts | 278° |
| 2026-05-06 14:56 | 38.22270 | -99.31873 | 32224 ft | 363 kts | 278° |
| 2026-05-06 14:56 | 38.23885 | -99.37951 | 32220 ft | 363 kts | 277° |
| 2026-05-06 14:57 | 38.25497 | -99.44029 | 32227 ft | 363 kts | 277° |
| 2026-05-06 14:57 | 38.27104 | -99.50104 | 32225 ft | 363 kts | 277° |
| 2026-05-06 14:58 | 38.28700 | -99.56150 | 32226 ft | 363 kts | 277° |
| 2026-05-06 14:58 | 38.30305 | -99.62230 | 32229 ft | 362 kts | 277° |
| 2026-05-06 14:59 | 38.31902 | -99.68303 | 32224 ft | 361 kts | 277° |
| 2026-05-06 14:59 | 38.33490 | -99.74361 | 32224 ft | 360 kts | 277° |
| 2026-05-06 15:00 | 38.35061 | -99.80376 | 32218 ft | 360 kts | 277° |
| 2026-05-06 15:00 | 38.36640 | -99.86434 | 32226 ft | 360 kts | 277° |
| 2026-05-06 15:01 | 38.38215 | -99.92487 | 32224 ft | 360 kts | 277° |
| 2026-05-06 15:01 | 38.39787 | -99.98538 | 32223 ft | 360 kts | 277° |
| 2026-05-06 15:02 | 38.41357 | -100.04598 | 32221 ft | 360 kts | 277° |
| 2026-05-06 15:02 | 38.42909 | -100.10624 | 32223 ft | 361 kts | 277° |
| 2026-05-06 15:03 | 38.44477 | -100.16704 | 32223 ft | 361 kts | 277° |
| 2026-05-06 15:03 | 38.46045 | -100.22801 | 32223 ft | 362 kts | 277° |
| 2026-05-06 15:04 | 38.47615 | -100.28920 | 32222 ft | 363 kts | 277° |
| 2026-05-06 15:04 | 38.49185 | -100.35058 | 32230 ft | 365 kts | 277° |
| 2026-05-06 15:05 | 38.50749 | -100.41183 | 32232 ft | 366 kts | 277° |
| 2026-05-06 15:05 | 38.52321 | -100.47361 | 32236 ft | 367 kts | 277° |
| 2026-05-06 15:06 | 38.53898 | -100.53570 | 32231 ft | 368 kts | 277° |
| 2026-05-06 15:06 | 38.55478 | -100.59809 | 32231 ft | 370 kts | 277° |
| 2026-05-06 15:07 | 38.57049 | -100.66024 | 32238 ft | 370 kts | 277° |
| 2026-05-06 15:07 | 38.58633 | -100.72303 | 32243 ft | 371 kts | 278° |
| 2026-05-06 15:08 | 38.60216 | -100.78601 | 32239 ft | 373 kts | 277° |
| 2026-05-06 15:08 | 38.61797 | -100.84910 | 32241 ft | 373 kts | 277° |
| 2026-05-06 15:09 | 38.63370 | -100.91199 | 32242 ft | 374 kts | 278° |
| 2026-05-06 15:09 | 38.64954 | -100.97548 | 32235 ft | 375 kts | 278° |
| 2026-05-06 15:10 | 38.66535 | -101.03905 | 32233 ft | 376 kts | 278° |
| 2026-05-06 15:10 | 38.68119 | -101.10286 | 32235 ft | 376 kts | 278° |
| 2026-05-06 15:11 | 38.69700 | -101.16674 | 32224 ft | 377 kts | 278° |
| 2026-05-06 15:11 | 38.71269 | -101.23032 | 32222 ft | 377 kts | 278° |
| 2026-05-06 15:12 | 38.72847 | -101.29438 | 32225 ft | 377 kts | 278° |
| 2026-05-06 15:12 | 38.74421 | -101.35851 | 32224 ft | 377 kts | 278° |
| 2026-05-06 15:13 | 38.75991 | -101.42262 | 32217 ft | 377 kts | 278° |
| 2026-05-06 15:13 | 38.77549 | -101.48644 | 32220 ft | 378 kts | 278° |
| 2026-05-06 15:14 | 38.79121 | -101.55105 | 32225 ft | 381 kts | 278° |
| 2026-05-06 15:14 | 38.80701 | -101.61613 | 32208 ft | 384 kts | 278° |
| 2026-05-06 15:15 | 38.82292 | -101.68179 | 32209 ft | 386 kts | 278° |
| 2026-05-06 15:15 | 38.83887 | -101.74778 | 32213 ft | 388 kts | 278° |
| 2026-05-06 15:16 | 38.85461 | -101.81371 | 32191 ft | 389 kts | 278° |
| 2026-05-06 15:16 | 38.86886 | -101.88056 | 32200 ft | 388 kts | 277° |
| 2026-05-06 15:17 | 38.88264 | -101.94758 | 32191 ft | 389 kts | 277° |
| 2026-05-06 15:17 | 38.89650 | -102.01453 | 32201 ft | 388 kts | 277° |
| 2026-05-06 15:18 | 38.91032 | -102.08100 | 32191 ft | 388 kts | 277° |
| 2026-05-06 15:18 | 38.92427 | -102.14810 | 32190 ft | 390 kts | 277° |
| 2026-05-06 15:19 | 38.93823 | -102.21539 | 32189 ft | 390 kts | 278° |
| 2026-05-06 15:19 | 38.95220 | -102.28290 | 32186 ft | 392 kts | 278° |
| 2026-05-06 15:20 | 38.96607 | -102.35014 | 32190 ft | 392 kts | 278° |
| 2026-05-06 15:20 | 38.98004 | -102.41803 | 32185 ft | 393 kts | 278° |
| 2026-05-06 15:21 | 38.99400 | -102.48609 | 32187 ft | 394 kts | 278° |
| 2026-05-06 15:21 | 39.00795 | -102.55434 | 32190 ft | 395 kts | 278° |
| 2026-05-06 15:22 | 39.02188 | -102.62273 | 32187 ft | 396 kts | 278° |
| 2026-05-06 15:22 | 39.03571 | -102.69088 | 32186 ft | 397 kts | 278° |
| 2026-05-06 15:23 | 39.04959 | -102.75952 | 32188 ft | 397 kts | 278° |
| 2026-05-06 15:23 | 39.06346 | -102.82832 | 32185 ft | 397 kts | 278° |
| 2026-05-06 15:24 | 39.07732 | -102.89724 | 32183 ft | 398 kts | 278° |
| 2026-05-06 15:24 | 39.09105 | -102.96575 | 32189 ft | 398 kts | 278° |
| 2026-05-06 15:25 | 39.10485 | -103.03480 | 32181 ft | 399 kts | 278° |
| 2026-05-06 15:25 | 39.11862 | -103.10402 | 32176 ft | 399 kts | 278° |
| 2026-05-06 15:26 | 39.13237 | -103.17338 | 32179 ft | 400 kts | 278° |
| 2026-05-06 15:26 | 39.14607 | -103.24269 | 32178 ft | 400 kts | 278° |
| 2026-05-06 15:27 | 39.15969 | -103.31175 | 32178 ft | 400 kts | 278° |
| 2026-05-06 15:27 | 39.17334 | -103.38131 | 32176 ft | 401 kts | 278° |
| 2026-05-06 15:28 | 39.18697 | -103.45104 | 32181 ft | 402 kts | 278° |
| 2026-05-06 15:28 | 39.20061 | -103.52095 | 32175 ft | 402 kts | 278° |
| 2026-05-06 15:29 | 39.21412 | -103.59047 | 32176 ft | 403 kts | 278° |
| 2026-05-06 15:29 | 39.22769 | -103.66058 | 32177 ft | 403 kts | 279° |
| 2026-05-06 15:30 | 39.24126 | -103.73075 | 32179 ft | 403 kts | 279° |
| 2026-05-06 15:30 | 39.25476 | -103.80093 | 32180 ft | 403 kts | 278° |
| 2026-05-06 15:31 | 39.26811 | -103.87072 | 32176 ft | 403 kts | 278° |
| 2026-05-06 15:31 | 39.28150 | -103.94091 | 32179 ft | 403 kts | 279° |
| 2026-05-06 15:32 | 39.30159 | -104.04651 | 32171 ft | 404 kts | 279° |
| 2026-05-06 15:32 | 39.31492 | -104.11688 | 32186 ft | 405 kts | 279° |
| 2026-05-06 15:33 | 39.32817 | -104.18722 | 32194 ft | 406 kts | 279° |